Time;durP1;ratioP1;P1;durP2;ratioP2;P2;SDS_P1;SDS_P2;PMS_P1;PMS_P2;Temp;Humidity;BMP_temperature;BMP_pressure;BME280_temperature;BME280_humidity;BME280_pressure;Samples;Min_cycle;Max_cycle;Signal;HPM_P1;HPM_P2
2022/11/26 00:01:38;;;;;;;34.25;17.63;;;;;;;11.11;84.75;101757.69;5048853;27;20154;-68
2022/11/26 00:04:05;;;;;;;37.40;17.77;;;;;;;11.24;84.42;101764.16;5049627;28;20389;-68
2022/11/26 00:06:35;;;;;;;32.60;16.83;;;;;;;10.68;86.06;101761.00;5049452;28;20052;-68
2022/11/26 00:09:02;;;;;;;31.60;16.98;;;;;;;10.33;87.79;101768.41;5049601;28;20075;-67
2022/11/26 00:11:30;;;;;;;37.15;16.58;;;;;;;10.67;88.26;101769.81;5050189;28;20052;-66
2022/11/26 00:13:57;;;;;;;34.63;16.02;;;;;;;10.38;89.32;101775.22;5040250;28;20532;-66
2022/11/26 00:16:23;;;;;;;37.22;14.68;;;;;;;10.54;90.13;101776.38;5048097;28;20131;-66
2022/11/26 00:18:49;;;;;;;34.75;14.93;;;;;;;10.38;91.17;101771.75;5048977;27;20052;-66
2022/11/26 00:21:21;;;;;;;28.83;14.23;;;;;;;10.52;90.63;101775.59;5046940;28;20051;-65
2022/11/26 00:23:48;;;;;;;37.40;14.20;;;;;;;10.73;89.82;101776.59;5061358;28;20040;-67
2022/11/26 00:26:18;;;;;;;32.28;14.38;;;;;;;10.72;88.97;101778.34;5065457;28;20044;-66
2022/11/26 00:28:51;;;;;;;27.77;14.02;;;;;;;10.74;89.67;101776.56;5047897;28;20424;-66
2022/11/26 00:31:18;;;;;;;29.10;14.38;;;;;;;11.11;87.07;101789.19;5049082;28;20622;-66
2022/11/26 00:33:44;;;;;;;30.77;13.85;;;;;;;11.20;86.61;101785.34;5039396;28;20124;-66
2022/11/26 00:36:19;;;;;;;36.03;14.82;;;;;;;11.14;85.98;101794.31;5057547;28;20040;-66
2022/11/26 00:38:47;;;;;;;27.63;14.43;;;;;;;11.22;85.24;101801.91;5069166;28;20055;-66
2022/11/26 00:41:18;;;;;;;29.77;13.68;;;;;;;11.25;85.15;101807.03;5058692;28;20419;-67
2022/11/26 00:43:45;;;;;;;32.67;15.88;;;;;;;11.18;85.43;101805.56;5068381;27;20561;-67
2022/11/26 00:46:19;;;;;;;38.15;15.98;;;;;;;11.39;84.29;101811.75;5055515;27;20048;-66
2022/11/26 00:48:45;;;;;;;27.35;15.98;;;;;;;11.15;84.96;101803.91;5045824;28;20056;-66
2022/11/26 00:51:15;;;;;;;34.78;17.05;;;;;;;11.24;85.32;101811.44;5050620;28;20049;-66
2022/11/26 00:53:42;;;;;;;32.13;17.40;;;;;;;11.24;84.70;101818.44;5039038;28;20048;-66
2022/11/26 00:56:14;;;;;;;42.25;18.63;;;;;;;11.41;84.20;101820.44;5045157;28;20049;-66
2022/11/26 00:58:40;;;;;;;39.83;18.58;;;;;;;11.36;84.32;101817.13;5038378;28;20055;-66
2022/11/26 01:01:11;;;;;;;44.40;19.80;;;;;;;11.17;85.20;101827.47;5034902;27;20044;-66
2022/11/26 01:03:41;;;;;;;32.92;17.65;;;;;;;11.31;85.23;101833.06;5047630;28;20497;-66
2022/11/26 01:06:15;;;;;;;37.50;17.70;;;;;;;11.52;83.34;101828.78;5049419;28;20131;-66
2022/11/26 01:08:41;;;;;;;41.08;18.48;;;;;;;11.50;83.39;101826.19;5048781;28;20528;-66
2022/11/26 01:11:12;;;;;;;38.92;18.67;;;;;;;11.49;83.62;101829.72;5047767;28;20047;-67
2022/11/26 01:13:39;;;;;;;34.42;16.60;;;;;;;11.38;83.87;101842.41;5039035;27;20032;-66
2022/11/26 01:16:18;;;;;;;39.35;17.45;;;;;;;11.63;83.22;101840.59;5047750;28;20050;-66
2022/11/26 01:18:46;;;;;;;41.85;17.55;;;;;;;11.44;83.83;101839.56;5048831;28;20044;-67
2022/11/26 01:21:13;;;;;;;34.58;16.70;;;;;;;11.52;84.34;101845.41;5047868;28;20439;-66
2022/11/26 01:23:40;;;;;;;39.08;16.60;;;;;;;11.38;84.86;101839.78;5068096;27;20054;-66
2022/11/26 01:26:13;;;;;;;41.30;17.95;;;;;;;11.39;84.66;101853.78;5105938;27;20047;-66
2022/11/26 01:28:39;;;;;;;35.58;15.38;;;;;;;11.52;84.91;101860.28;5073908;27;20409;-67
2022/11/26 01:31:12;;;;;;;41.22;15.45;;;;;;;11.50;84.49;101860.34;5059237;28;20048;-67
2022/11/26 01:33:39;;;;;;;31.25;16.08;;;;;;;11.43;84.57;101863.25;5040758;28;20585;-67
2022/11/26 01:36:19;;;;;;;32.45;15.80;;;;;;;11.37;84.91;101868.75;5047316;28;20045;-68
2022/11/26 01:38:45;;;;;;;39.58;16.05;;;;;;;11.40;84.72;101876.50;5037480;28;20052;-67
2022/11/26 01:41:20;;;;;;;31.15;15.10;;;;;;;11.27;85.17;101872.63;5047381;28;20048;-67
2022/11/26 01:43:48;;;;;;;37.17;16.42;;;;;;;11.29;85.31;101881.28;5048465;28;20048;-67
2022/11/26 01:46:17;;;;;;;39.15;14.77;;;;;;;11.08;86.00;101872.44;5038273;28;20041;-67
2022/11/26 01:48:43;;;;;;;33.78;15.35;;;;;;;11.07;86.54;101879.44;5047533;28;20439;-67
2022/11/26 01:51:13;;;;;;;35.20;14.48;;;;;;;11.26;86.21;101881.41;5046969;28;20484;-67
2022/11/26 01:53:47;;;;;;;40.38;15.27;;;;;;;11.06;86.35;101874.25;5057202;28;20043;-67
2022/11/26 01:56:20;;;;;;;34.22;14.02;;;;;;;10.60;88.61;101890.72;5056631;28;20037;-67
2022/11/26 01:58:51;;;;;;;35.88;15.23;;;;;;;10.64;90.11;101892.34;5042106;28;20404;-67
2022/11/26 02:01:18;;;;;;;33.40;14.43;;;;;;;10.71;89.97;101897.34;5051075;28;20036;-67
2022/11/26 02:03:52;;;;;;;32.13;13.65;;;;;;;10.95;88.34;101886.88;5048380;28;20056;-67
2022/11/26 02:06:25;;;;;;;42.00;15.30;;;;;;;10.90;88.87;101886.22;5036567;28;20044;-68
2022/11/26 02:08:52;;;;;;;37.03;16.05;;;;;;;10.78;88.82;101897.97;5045880;27;20125;-68
2022/11/26 02:11:21;;;;;;;40.53;14.43;;;;;;;11.05;88.23;101896.13;5033263;28;20041;-68
2022/11/26 02:13:51;;;;;;;33.90;13.65;;;;;;;10.90;88.60;101901.94;5047521;28;20044;-68
2022/11/26 02:16:27;;;;;;;37.17;14.20;;;;;;;10.86;88.33;101905.59;5047201;28;20043;-68
2022/11/26 02:19:10;;;;;;;28.25;12.55;;;;;;;10.48;89.81;101904.25;5037691;28;20781;-68
2022/11/26 02:21:44;;;;;;;41.55;14.35;;;;;;;10.49;90.37;101913.84;5052249;28;20297;-68
2022/11/26 02:24:30;;;;;;;35.05;13.77;;;;;;;10.71;89.33;101922.72;5053892;28;20047;-68
2022/11/26 02:27:15;;;;;;;38.55;13.18;;;;;;;10.84;87.72;101924.00;5052037;28;20502;-68
2022/11/26 02:30:00;;;;;;;29.13;12.68;;;;;;;10.98;87.60;101924.38;5055536;28;20051;-67
2022/11/26 02:32:31;;;;;;;38.28;12.63;;;;;;;10.93;87.64;101926.31;5055889;28;20130;-67
2022/11/26 02:35:04;;;;;;;32.55;12.93;;;;;;;10.89;87.85;101932.59;5047711;28;20059;-67
2022/11/26 02:37:35;;;;;;;33.67;13.85;;;;;;;10.69;88.83;101935.88;5047411;28;20055;-68
2022/11/26 02:40:01;;;;;;;36.13;12.35;;;;;;;10.83;87.83;101938.00;5048199;28;20044;-67
2022/11/26 02:42:31;;;;;;;27.45;12.73;;;;;;;10.37;90.27;101943.06;5046389;28;20044;-67
2022/11/26 02:45:02;;;;;;;29.80;12.27;;;;;;;10.25;91.04;101946.91;5036841;28;20555;-67
2022/11/26 02:47:29;;;;;;;32.72;12.35;;;;;;;10.37;90.77;101949.16;5047347;28;20044;-67
2022/11/26 02:49:59;;;;;;;32.80;12.80;;;;;;;10.29;91.47;101943.31;5048038;28;20382;-67
2022/11/26 02:52:28;;;;;;;26.13;11.80;;;;;;;10.31;91.32;101949.34;5046842;28;20523;-67
2022/11/26 02:54:57;;;;;;;37.40;12.32;;;;;;;10.20;90.68;101954.91;5066320;28;20407;-67
2022/11/26 02:57:29;;;;;;;32.13;12.65;;;;;;;10.62;88.19;101943.97;5050933;28;20124;-68
2022/11/26 02:59:56;;;;;;;34.47;13.27;;;;;;;10.68;88.57;101947.25;5059433;28;20061;-67
2022/11/26 03:02:28;;;;;;;33.08;12.43;;;;;;;10.95;86.86;101960.38;5053534;28;20417;-67
2022/11/26 03:04:59;;;;;;;33.25;12.43;;;;;;;10.68;87.90;101955.13;5040317;28;20135;-67
2022/11/26 03:07:28;;;;;;;35.38;13.05;;;;;;;10.80;86.75;101959.13;5053839;28;20499;-67
2022/11/26 03:10:00;;;;;;;29.73;12.55;;;;;;;10.52;88.38;101964.41;5061290;28;20070;-67
2022/11/26 03:12:27;;;;;;;31.37;12.93;;;;;;;10.43;88.98;101958.59;5040607;28;20047;-68
2022/11/26 03:14:54;;;;;;;35.03;12.18;;;;;;;10.55;88.67;101969.56;5050738;28;20055;-67
2022/11/26 03:17:21;;;;;;;29.38;12.13;;;;;;;10.46;89.11;101975.09;5051959;28;20496;-67
2022/11/26 03:19:48;;;;;;;28.67;11.93;;;;;;;10.39;89.73;101977.94;5041386;28;20044;-67
2022/11/26 03:22:16;;;;;;;34.28;12.00;;;;;;;10.47;88.83;101987.28;5058418;28;20393;-67
2022/11/26 03:24:43;;;;;;;27.38;11.27;;;;;;;10.34;89.50;101985.97;5070427;28;20058;-67
2022/11/26 03:27:10;;;;;;;27.20;10.32;;;;;;;10.34;88.58;101992.97;5062569;28;20047;-67
2022/11/26 03:29:36;;;;;;;31.15;10.57;;;;;;;10.65;87.54;101993.72;5087313;27;20058;-68
2022/11/26 03:32:03;;;;;;;20.77;8.68;;;;;;;10.21;88.55;101990.72;5057369;28;20045;-68
2022/11/26 03:34:30;;;;;;;28.58;9.98;;;;;;;10.13;88.91;101995.28;5040793;28;20072;-68
2022/11/26 03:36:57;;;;;;;34.25;9.50;;;;;;;9.90;90.32;102004.75;5050266;28;20463;-68
2022/11/26 03:39:24;;;;;;;23.08;8.98;;;;;;;10.22;89.24;102002.06;5050158;28;20462;-68
2022/11/26 03:41:50;;;;;;;21.05;9.00;;;;;;;10.05;89.08;101999.91;5040592;28;20109;-68
2022/11/26 03:44:17;;;;;;;26.95;9.88;;;;;;;10.40;87.97;102004.13;5049828;28;20488;-69
2022/11/26 03:46:43;;;;;;;28.05;8.88;;;;;;;10.32;88.82;102011.38;5050239;28;20040;-68
2022/11/26 03:49:10;;;;;;;20.70;9.52;;;;;;;10.17;89.15;102011.81;5039743;28;20045;-68
2022/11/26 03:51:37;;;;;;;28.50;9.98;;;;;;;10.34;88.74;102013.94;5057778;28;20051;-68
2022/11/26 03:54:04;;;;;;;32.92;10.45;;;;;;;10.64;86.95;102024.31;5052182;28;20407;-68
2022/11/26 03:56:31;;;;;;;36.97;10.55;;;;;;;10.83;85.85;102016.72;5040693;27;20048;-69
2022/11/26 03:58:57;;;;;;;27.67;9.77;;;;;;;10.63;86.61;102019.16;5053941;27;20051;-68
2022/11/26 04:01:24;;;;;;;22.27;10.20;;;;;;;10.31;87.72;102024.53;5062085;28;20419;-68
2022/11/26 04:03:50;;;;;;;35.95;12.38;;;;;;;10.33;87.85;102031.44;5040362;28;20102;-68
2022/11/26 04:06:17;;;;;;;32.78;11.00;;;;;;;10.19;88.11;102031.00;5048256;28;20041;-68
2022/11/26 04:08:44;;;;;;;26.20;10.70;;;;;;;9.99;89.15;102033.28;5048759;27;20054;-68
2022/11/26 04:11:11;;;;;;;39.15;10.63;;;;;;;9.99;90.01;102043.78;5040715;27;20416;-68
2022/11/26 04:13:38;;;;;;;33.70;10.10;;;;;;;10.13;88.66;102039.00;5049205;27;20052;-68
2022/11/26 04:16:05;;;;;;;36.00;11.23;;;;;;;10.32;88.01;102037.56;5049958;27;20062;-68
2022/11/26 04:18:33;;;;;;;31.98;11.55;;;;;;;9.87;89.76;102046.72;5039579;27;20040;-68
2022/11/26 04:20:59;;;;;;;37.65;11.27;;;;;;;10.03;89.55;102046.28;5052529;27;20546;-68
2022/11/26 04:23:26;;;;;;;33.55;11.45;;;;;;;10.37;88.88;102048.78;5063842;28;20051;-69
2022/11/26 04:25:52;;;;;;;33.15;11.18;;;;;;;10.45;88.30;102051.19;5045437;28;20040;-69
2022/11/26 04:28:20;;;;;;;25.02;10.48;;;;;;;9.99;90.37;102075.22;5047776;28;20416;-68
2022/11/26 04:30:46;;;;;;;35.00;10.93;;;;;;;10.03;91.04;102069.00;5061066;27;20040;-68
2022/11/26 04:33:13;;;;;;;34.65;10.98;;;;;;;10.42;88.82;102077.50;5040654;27;20048;-69
2022/11/26 04:35:39;;;;;;;30.27;11.32;;;;;;;10.27;89.08;102079.66;5049035;27;20389;-68
2022/11/26 04:38:06;;;;;;;30.58;11.88;;;;;;;10.39;88.42;102086.31;5048608;28;20044;-68
2022/11/26 04:40:32;;;;;;;35.30;12.00;;;;;;;10.34;88.94;102085.59;5038460;28;20328;-68
2022/11/26 04:42:58;;;;;;;31.52;11.43;;;;;;;9.60;93.10;102101.59;5049371;28;20506;-69
2022/11/26 04:45:26;;;;;;;34.42;11.93;;;;;;;9.48;93.64;102101.91;5048603;28;20381;-68
2022/11/26 04:47:53;;;;;;;32.15;11.93;;;;;;;9.60;93.20;102104.22;5039391;27;20121;-68
2022/11/26 04:50:20;;;;;;;34.13;11.85;;;;;;;10.00;91.52;102101.41;5048890;27;20415;-69
2022/11/26 04:52:47;;;;;;;34.88;11.55;;;;;;;9.81;91.83;102115.03;5065739;28;20415;-69
2022/11/26 04:55:13;;;;;;;36.15;11.88;;;;;;;9.67;93.80;102115.41;5051976;27;20131;-68
2022/11/26 04:57:40;;;;;;;45.22;12.68;;;;;;;9.88;92.21;102111.34;5049994;27;20624;-68
2022/11/26 05:00:08;;;;;;;35.75;12.13;;;;;;;9.93;91.49;102112.94;5056356;28;20044;-68
2022/11/26 05:02:35;;;;;;;39.53;12.98;;;;;;;9.83;91.94;102119.31;5054731;27;20055;-68
2022/11/26 05:05:02;;;;;;;35.42;12.18;;;;;;;10.03;91.08;102124.88;5048698;27;20045;-68
2022/11/26 05:07:28;;;;;;;39.08;13.25;;;;;;;9.85;91.57;102114.91;5047858;28;20052;-68
2022/11/26 05:09:55;;;;;;;34.47;12.23;;;;;;;9.63;92.34;102122.47;5037826;27;20055;-68
2022/11/26 05:12:21;;;;;;;38.60;12.90;;;;;;;9.68;91.90;102124.97;5049326;27;20044;-68
2022/11/26 05:14:48;;;;;;;34.03;11.52;;;;;;;10.09;90.35;102132.56;5047680;27;20087;-68
2022/11/26 05:17:14;;;;;;;32.80;12.02;;;;;;;9.51;93.01;102120.16;5038804;27;20040;-68
2022/11/26 05:19:42;;;;;;;30.00;10.73;;;;;;;9.67;91.87;102126.72;5047665;27;20051;-69
2022/11/26 05:22:08;;;;;;;33.42;12.10;;;;;;;9.91;90.10;102126.97;5049711;27;20060;-68
2022/11/26 05:24:35;;;;;;;35.42;11.32;;;;;;;9.79;90.76;102134.25;5054752;27;20059;-68
2022/11/26 05:27:01;;;;;;;36.88;10.98;;;;;;;9.84;89.82;102135.88;5048321;27;20152;-68
2022/11/26 05:29:28;;;;;;;32.95;10.77;;;;;;;9.60;91.19;102133.03;5056545;27;20474;-69
2022/11/26 05:31:54;;;;;;;33.50;11.07;;;;;;;9.71;90.70;102146.72;5041540;27;20048;-68
2022/11/26 05:34:21;;;;;;;25.92;10.80;;;;;;;9.71;90.36;102136.25;5047781;27;20106;-68
2022/11/26 05:36:49;;;;;;;23.50;9.80;;;;;;;9.85;89.84;102142.84;5046522;28;20048;-68
2022/11/26 05:39:16;;;;;;;29.23;10.80;;;;;;;9.85;88.91;102142.84;5037658;27;20052;-69
2022/11/26 05:41:42;;;;;;;31.73;10.30;;;;;;;10.04;87.95;102142.34;5071177;27;20515;-68
2022/11/26 05:44:09;;;;;;;29.85;10.65;;;;;;;9.82;88.54;102141.19;5056769;27;20071;-68
2022/11/26 05:46:36;;;;;;;33.15;10.27;;;;;;;10.03;87.92;102152.84;5045433;27;20051;-68
2022/11/26 05:49:02;;;;;;;29.95;10.55;;;;;;;9.99;87.99;102151.22;5052829;28;20443;-68
2022/11/26 05:51:29;;;;;;;24.33;9.07;;;;;;;9.85;89.49;102158.56;5055300;27;20059;-68
2022/11/26 05:53:57;;;;;;;33.33;10.18;;;;;;;9.79;89.01;102163.06;5056102;28;20048;-68
2022/11/26 05:56:23;;;;;;;28.80;10.27;;;;;;;10.24;87.64;102168.00;5052046;28;20052;-68
2022/11/26 05:58:50;;;;;;;33.88;10.75;;;;;;;10.37;86.64;102173.78;5047221;27;20120;-69
2022/11/26 06:01:16;;;;;;;29.63;9.50;;;;;;;10.23;86.60;102176.81;5051985;27;20051;-68
2022/11/26 06:03:43;;;;;;;34.05;11.02;;;;;;;10.12;87.63;102174.44;5047760;28;20493;-69
2022/11/26 06:06:09;;;;;;;36.42;9.98;;;;;;;10.47;86.83;102170.84;5048307;27;20400;-68
2022/11/26 06:08:36;;;;;;;37.00;10.38;;;;;;;10.55;85.42;102171.50;5054766;27;20059;-68
2022/11/26 06:11:04;;;;;;;26.48;10.13;;;;;;;10.55;86.26;102187.25;5046134;27;20063;-69
2022/11/26 06:13:31;;;;;;;30.15;9.90;;;;;;;10.65;85.48;102187.81;5050138;27;20052;-68
2022/11/26 06:15:58;;;;;;;26.60;9.25;;;;;;;10.69;85.22;102182.44;5047935;27;20044;-68
2022/11/26 06:18:24;;;;;;;31.40;9.75;;;;;;;10.26;86.97;102181.97;5046705;27;20048;-69
2022/11/26 06:20:51;;;;;;;35.15;10.00;;;;;;;10.17;87.51;102179.56;5049508;27;20060;-68
2022/11/26 06:23:17;;;;;;;33.83;10.05;;;;;;;9.88;88.71;102187.31;5057417;27;20512;-68
2022/11/26 06:25:44;;;;;;;28.50;9.85;;;;;;;10.04;88.52;102193.88;5047509;28;20041;-68
2022/11/26 06:28:11;;;;;;;30.48;10.23;;;;;;;10.16;88.19;102194.44;5046928;27;20052;-68
2022/11/26 06:30:38;;;;;;;33.78;10.65;;;;;;;10.19;87.58;102193.50;5051270;27;20052;-68
2022/11/26 06:33:04;;;;;;;27.98;9.52;;;;;;;10.23;86.71;102196.03;5046019;27;20041;-70
2022/11/26 06:35:31;;;;;;;31.50;9.93;;;;;;;10.09;86.85;102200.72;5078684;27;20045;-69
2022/11/26 06:37:57;;;;;;;29.90;9.85;;;;;;;9.86;88.54;102197.84;5035327;28;20503;-69
2022/11/26 06:40:24;;;;;;;25.85;8.77;;;;;;;9.83;89.34;102204.94;5041663;27;20052;-68
2022/11/26 06:42:51;;;;;;;25.75;9.00;;;;;;;9.99;88.05;102212.34;5050738;27;20049;-68
2022/11/26 06:45:20;;;;;;;29.25;8.77;;;;;;;10.06;87.30;102216.53;5052174;27;20055;-68
2022/11/26 06:47:48;;;;;;;29.65;8.65;;;;;;;10.03;87.87;102228.84;5043079;28;20040;-68
2022/11/26 06:50:15;;;;;;;29.63;9.05;;;;;;;9.67;89.13;102218.41;5058537;28;20044;-69
2022/11/26 06:52:41;;;;;;;25.98;8.48;;;;;;;9.84;88.48;102219.72;5055385;27;20052;-68
2022/11/26 06:55:08;;;;;;;25.50;9.55;;;;;;;9.90;87.85;102220.44;5023030;28;20051;-68
2022/11/26 06:57:35;;;;;;;31.10;9.45;;;;;;;9.74;89.04;102225.22;5050205;27;20045;-68
2022/11/26 07:00:01;;;;;;;27.33;8.55;;;;;;;9.83;88.00;102226.72;5058646;28;20044;-68
2022/11/26 07:02:29;;;;;;;25.40;9.27;;;;;;;10.25;85.95;102230.03;5044462;28;20566;-68
2022/11/26 07:04:56;;;;;;;26.02;8.93;;;;;;;10.27;85.04;102231.72;5049130;28;20049;-68
2022/11/26 07:07:22;;;;;;;23.88;8.50;;;;;;;10.17;85.52;102234.63;5050258;28;20420;-68
2022/11/26 07:09:49;;;;;;;24.77;8.75;;;;;;;10.21;85.18;102244.97;5040248;28;20044;-69
2022/11/26 07:12:15;;;;;;;32.08;7.85;;;;;;;10.14;85.59;102245.16;5049622;27;20485;-68
2022/11/26 07:14:42;;;;;;;26.45;8.55;;;;;;;9.72;87.23;102239.22;5050625;27;20060;-68
2022/11/26 07:17:09;;;;;;;28.80;8.10;;;;;;;10.32;85.32;102242.06;5039113;28;20412;-68
2022/11/26 07:19:36;;;;;;;19.30;7.95;;;;;;;10.09;85.84;102247.03;5048717;28;20052;-69
2022/11/26 07:22:03;;;;;;;29.80;8.18;;;;;;;10.32;85.07;102255.19;5049979;27;20044;-69
2022/11/26 07:24:30;;;;;;;25.02;8.50;;;;;;;10.18;85.05;102255.56;5039834;28;20044;-69
2022/11/26 07:26:57;;;;;;;23.88;8.10;;;;;;;10.41;84.29;102252.34;5048374;28;20064;-69
2022/11/26 07:29:23;;;;;;;24.05;7.72;;;;;;;10.27;84.88;102261.47;5054315;27;20052;-69
2022/11/26 07:31:49;;;;;;;27.15;8.18;;;;;;;10.28;84.77;102271.91;5048562;27;20049;-69
2022/11/26 07:34:16;;;;;;;29.85;7.75;;;;;;;9.95;86.32;102264.84;5049840;27;20051;-69
2022/11/26 07:36:44;;;;;;;24.45;7.78;;;;;;;10.27;85.54;102270.19;5051053;27;20047;-69
2022/11/26 07:39:11;;;;;;;35.38;7.68;;;;;;;10.15;85.72;102268.75;5039077;27;20052;-69
2022/11/26 07:41:38;;;;;;;27.50;8.15;;;;;;;10.45;84.75;102269.72;5048890;27;20048;-69
2022/11/26 07:44:05;;;;;;;22.63;7.43;;;;;;;10.66;83.61;102258.63;5050564;27;20044;-69
2022/11/26 07:46:31;;;;;;;24.65;8.25;;;;;;;10.68;82.93;102271.69;5061157;27;20058;-69
2022/11/26 07:48:57;;;;;;;25.02;8.60;;;;;;;10.47;84.41;102286.25;5060571;27;20044;-69
2022/11/26 07:51:27;;;;;;;28.27;8.15;;;;;;;10.52;84.65;102279.13;5050213;27;20412;-69
2022/11/26 07:53:56;;;;;;;26.50;8.07;;;;;;;10.29;86.54;102278.00;5040164;27;20045;-69
2022/11/26 07:56:22;;;;;;;24.08;9.57;;;;;;;9.98;87.38;102278.75;5048707;27;20048;-69
2022/11/26 07:58:49;;;;;;;34.38;9.48;;;;;;;10.16;87.72;102277.47;5053371;27;20059;-69
2022/11/26 08:01:17;;;;;;;34.80;9.27;;;;;;;10.31;86.57;102278.84;5049049;27;20044;-69
2022/11/26 08:03:46;;;;;;;28.08;7.97;;;;;;;10.13;87.30;102282.75;5048826;27;20523;-69
2022/11/26 08:06:14;;;;;;;28.25;8.75;;;;;;;10.04;88.37;102285.59;5050026;27;20048;-69
2022/11/26 08:08:41;;;;;;;35.78;9.10;;;;;;;10.33;87.17;102285.75;5049524;27;20048;-69
2022/11/26 08:11:14;;;;;;;28.63;10.05;;;;;;;10.32;86.91;102286.66;5048168;27;20051;-68
2022/11/26 08:13:40;;;;;;;28.83;9.20;;;;;;;10.27;87.76;102293.78;5039995;27;20155;-66
2022/11/26 08:16:07;;;;;;;29.08;9.50;;;;;;;10.32;86.96;102302.38;5062653;28;20045;-66
2022/11/26 08:18:34;;;;;;;34.15;9.35;;;;;;;10.55;86.89;102305.28;5056330;28;20052;-66
2022/11/26 08:21:00;;;;;;;28.52;8.93;;;;;;;10.69;85.48;102308.38;5038024;28;20051;-66
2022/11/26 08:23:29;;;;;;;26.63;9.38;;;;;;;10.95;84.19;102312.03;5049533;28;20125;-65
2022/11/26 08:25:56;;;;;;;35.55;9.25;;;;;;;10.42;87.12;102311.72;5048919;28;20497;-65
2022/11/26 08:28:24;;;;;;;33.47;9.52;;;;;;;10.79;85.46;102303.72;5039413;28;20499;-66
2022/11/26 08:31:00;;;;;;;30.40;8.57;;;;;;;11.01;84.63;102314.50;5050116;28;20514;-66
2022/11/26 08:33:27;;;;;;;40.33;10.00;;;;;;;10.85;85.23;102328.94;5049026;28;20055;-66
2022/11/26 08:35:54;;;;;;;34.53;9.13;;;;;;;11.20;83.90;102321.78;5039197;28;20087;-66
2022/11/26 08:38:21;;;;;;;32.13;10.20;;;;;;;11.48;81.98;102327.09;5048616;28;20083;-66
2022/11/26 08:40:47;;;;;;;36.15;9.70;;;;;;;11.46;81.16;102330.66;5048353;28;20655;-66
2022/11/26 08:43:14;;;;;;;27.63;8.75;;;;;;;11.38;81.88;102335.31;5039744;28;20045;-67
2022/11/26 08:45:41;;;;;;;27.65;8.90;;;;;;;11.43;81.18;102336.88;5060933;28;20048;-66
2022/11/26 08:48:08;;;;;;;32.92;10.75;;;;;;;11.20;82.07;102334.03;5048820;28;20512;-66
2022/11/26 08:50:34;;;;;;;37.67;11.38;;;;;;;11.48;81.33;102337.59;5039265;28;20098;-66
2022/11/26 08:53:01;;;;;;;39.78;11.65;;;;;;;11.51;80.90;102348.00;5067944;28;20044;-66
2022/11/26 08:55:27;;;;;;;36.85;10.65;;;;;;;11.54;81.21;102340.03;5056778;28;20055;-66
2022/11/26 08:57:54;;;;;;;23.80;9.65;;;;;;;11.45;81.72;102342.97;5056804;28;20067;-66
2022/11/26 09:00:21;;;;;;;28.27;10.07;;;;;;;11.42;81.05;102353.53;5051888;28;20056;-66
2022/11/26 09:02:48;;;;;;;28.35;9.90;;;;;;;11.49;81.44;102352.44;5068719;28;20051;-66
2022/11/26 09:05:15;;;;;;;31.52;12.00;;;;;;;11.62;81.45;102353.81;5043754;28;20132;-66
2022/11/26 09:07:41;;;;;;;30.42;10.90;;;;;;;11.70;82.11;102354.44;5046195;28;20404;-66
2022/11/26 09:10:09;;;;;;;33.05;10.48;;;;;;;11.71;81.90;102355.34;5047751;28;20051;-66
2022/11/26 09:12:35;;;;;;;37.80;10.20;;;;;;;11.59;82.50;102356.53;5037928;27;20044;-66
2022/11/26 09:15:02;;;;;;;27.75;9.52;;;;;;;11.22;82.93;102363.75;5047199;27;20041;-66
2022/11/26 09:17:28;;;;;;;26.30;8.30;;;;;;;11.28;82.99;102366.19;5078112;28;20043;-66
2022/11/26 09:19:56;;;;;;;21.98;8.10;;;;;;;11.50;82.13;102358.56;5039115;27;20040;-66
2022/11/26 09:22:23;;;;;;;23.40;8.75;;;;;;;11.36;83.07;102369.47;5047024;27;20087;-66
2022/11/26 09:24:50;;;;;;;24.92;8.07;;;;;;;11.32;83.32;102369.59;5049310;27;20052;-66
2022/11/26 09:27:16;;;;;;;26.45;8.18;;;;;;;11.67;82.27;102354.53;5037267;28;20052;-66
2022/11/26 09:29:43;;;;;;;25.67;7.60;;;;;;;11.95;81.52;102369.47;5055018;28;20048;-66
2022/11/26 09:32:09;;;;;;;27.15;7.78;;;;;;;11.78;81.95;102361.25;5062767;28;20048;-66
2022/11/26 09:34:36;;;;;;;28.02;7.35;;;;;;;11.91;81.02;102368.69;5039697;27;20450;-66
2022/11/26 09:37:04;;;;;;;25.65;7.80;;;;;;;12.13;79.50;102364.47;5046796;27;20044;-67
2022/11/26 09:39:31;;;;;;;21.42;6.85;;;;;;;12.36;78.05;102358.47;5048546;27;20052;-66
2022/11/26 09:42:05;;;;;;;24.45;6.55;;;;;;;12.42;77.96;102365.28;5037754;27;20059;-66
2022/11/26 09:44:55;;;;;;;28.58;7.63;;;;;;;12.18;79.08;102372.22;5047280;27;20083;-67
2022/11/26 09:47:25;;;;;;;20.90;6.43;;;;;;;12.09;79.69;102369.88;5044266;27;20048;-66
2022/11/26 09:50:01;;;;;;;16.17;6.40;;;;;;;12.07;79.13;102369.06;5073006;27;20447;-66
2022/11/26 09:52:35;;;;;;;15.77;6.13;;;;;;;12.48;78.03;102376.47;5053333;27;20044;-66
2022/11/26 09:55:12;;;;;;;24.92;6.40;;;;;;;12.62;77.54;102371.59;5030517;28;20051;-66
2022/11/26 09:57:42;;;;;;;20.23;6.47;;;;;;;12.74;77.80;102364.19;5037644;27;20048;-67
2022/11/26 10:00:24;;;;;;;23.95;6.70;;;;;;;12.66;77.73;102369.72;5056133;27;20625;-66
2022/11/26 10:02:52;;;;;;;17.95;6.68;;;;;;;12.58;77.91;102375.25;5029037;27;20050;-66
2022/11/26 10:05:20;;;;;;;24.75;6.72;;;;;;;13.31;75.00;102371.78;5047980;27;20044;-67
2022/11/26 10:08:02;;;;;;;18.90;6.85;;;;;;;13.53;76.39;102384.09;5047545;27;20079;-67
2022/11/26 10:10:34;;;;;;;17.20;6.63;;;;;;;13.55;74.12;102378.78;5042689;27;20064;-66
2022/11/26 10:13:05;;;;;;;20.33;6.43;;;;;;;13.36;74.24;102377.75;5047440;28;20094;-66
2022/11/26 10:15:38;;;;;;;20.48;6.03;;;;;;;13.44;72.59;102383.59;5038436;28;20045;-67
2022/11/26 10:18:18;;;;;;;17.08;5.68;;;;;;;13.44;72.99;102373.06;5046186;27;20488;-66
2022/11/26 10:21:03;;;;;;;17.80;6.25;;;;;;;13.23;73.62;102381.78;5038931;27;20555;-66
2022/11/26 10:23:36;;;;;;;17.50;5.40;;;;;;;13.10;73.24;102382.22;5046846;27;20060;-67
2022/11/26 10:26:07;;;;;;;18.40;6.32;;;;;;;12.69;74.91;102382.78;5037660;27;20048;-66
2022/11/26 10:28:38;;;;;;;15.90;7.70;;;;;;;12.79;75.18;102378.91;5046858;27;20054;-67
2022/11/26 10:31:12;;;;;;;17.83;7.18;;;;;;;12.81;74.15;102378.84;5048156;28;20040;-66
2022/11/26 10:33:48;;;;;;;24.67;7.72;;;;;;;12.59;74.39;102382.25;5047106;28;20484;-66
2022/11/26 10:36:22;;;;;;;20.20;8.27;;;;;;;12.41;74.90;102371.47;5047470;28;20048;-66
2022/11/26 10:38:50;;;;;;;22.20;8.50;;;;;;;12.36;75.99;102374.25;5037274;27;20626;-66
2022/11/26 10:41:19;;;;;;;20.85;8.18;;;;;;;11.77;78.22;102391.06;5047771;27;20098;-66
2022/11/26 10:43:45;;;;;;;23.08;7.65;;;;;;;11.91;78.57;102383.59;5046334;27;20044;-66
2022/11/26 10:46:30;;;;;;;20.90;7.55;;;;;;;11.81;79.22;102392.69;5047097;27;20093;-66
2022/11/26 10:49:15;;;;;;;19.42;7.32;;;;;;;12.13;78.03;102392.53;5042581;28;20044;-66
2022/11/26 10:51:47;;;;;;;27.88;7.15;;;;;;;12.12;78.44;102391.66;5038136;28;20037;-66
2022/11/26 10:54:24;;;;;;;22.35;6.07;;;;;;;11.72;79.66;102401.69;5032436;27;20044;-66
2022/11/26 10:56:52;;;;;;;20.88;5.72;;;;;;;11.56;79.29;102392.53;5047920;27;20048;-66
2022/11/26 10:59:24;;;;;;;16.27;5.50;;;;;;;11.45;79.32;102390.22;5050537;27;20098;-66
2022/11/26 11:01:51;;;;;;;20.27;5.53;;;;;;;11.46;79.43;102399.81;5040899;27;20472;-66
2022/11/26 11:04:28;;;;;;;20.30;6.28;;;;;;;11.39;79.32;102393.03;5046432;28;20524;-66
2022/11/26 11:06:54;;;;;;;15.68;5.47;;;;;;;11.59;79.71;102392.44;5037002;28;20043;-66
2022/11/26 11:09:31;;;;;;;22.25;5.40;;;;;;;12.28;77.16;102380.66;5047051;27;20090;-66
2022/11/26 11:12:20;;;;;;;19.40;6.18;;;;;;;13.07;76.96;102381.44;5027392;28;20041;-66
2022/11/26 11:14:48;;;;;;;15.35;4.22;;;;;;;13.77;72.17;102373.53;5029079;28;20052;-66
2022/11/26 11:17:31;;;;;;;15.93;4.60;;;;;;;14.27;69.42;102380.28;5030956;28;20049;-66
2022/11/26 11:19:59;;;;;;;16.58;4.20;;;;;;;14.61;66.50;102387.69;5030299;28;20045;-66
2022/11/26 11:22:26;;;;;;;10.73;4.32;;;;;;;15.10;64.01;102395.22;5038987;28;20048;-66